sensor_id;sensor_type;location;lat;lon;timestamp;pressure;altitude;pressure_sealevel;temperature;humidity
16016;BME280;8112;53.592;10.184;2023-07-20T00:01:41;100902.47;;;15.32;100.00
16016;BME280;8112;53.592;10.184;2023-07-20T00:06:45;100890.78;;;15.34;100.00
16016;BME280;8112;53.592;10.184;2023-07-20T00:11:48;100892.47;;;15.35;100.00
16016;BME280;8112;53.592;10.184;2023-07-20T00:16:52;100887.28;;;15.34;100.00
16016;BME280;8112;53.592;10.184;2023-07-20T00:21:56;100874.84;;;15.46;100.00
16016;BME280;8112;53.592;10.184;2023-07-20T00:26:58;100875.94;;;15.54;100.00
16016;BME280;8112;53.592;10.184;2023-07-20T00:32:03;100888.03;;;15.59;100.00
16016;BME280;8112;53.592;10.184;2023-07-20T00:37:06;100887.44;;;15.66;100.00
16016;BME280;8112;53.592;10.184;2023-07-20T00:42:09;100883.22;;;15.64;100.00
16016;BME280;8112;53.592;10.184;2023-07-20T00:47:12;100873.31;;;15.66;100.00
16016;BME280;8112;53.592;10.184;2023-07-20T00:52:18;100867.50;;;15.72;100.00
16016;BME280;8112;53.592;10.184;2023-07-20T00:57:23;100874.16;;;15.66;100.00
16016;BME280;8112;53.592;10.184;2023-07-20T01:02:26;100872.09;;;15.70;100.00
16016;BME280;8112;53.592;10.184;2023-07-20T01:07:31;100879.22;;;15.58;100.00
16016;BME280;8112;53.592;10.184;2023-07-20T01:12:40;100876.91;;;15.42;100.00
16016;BME280;8112;53.592;10.184;2023-07-20T01:17:44;100871.59;;;15.19;100.00
16016;BME280;8112;53.592;10.184;2023-07-20T01:23:17;100885.06;;;15.16;100.00
16016;BME280;8112;53.592;10.184;2023-07-20T01:28:37;100897.03;;;15.10;100.00
16016;BME280;8112;53.592;10.184;2023-07-20T01:33:47;100897.81;;;15.00;100.00
16016;BME280;8112;53.592;10.184;2023-07-20T01:38:51;100898.34;;;14.80;100.00
16016;BME280;8112;53.592;10.184;2023-07-20T01:43:57;100902.59;;;14.83;100.00
16016;BME280;8112;53.592;10.184;2023-07-20T01:49:01;100902.59;;;14.83;100.00
16016;BME280;8112;53.592;10.184;2023-07-20T01:54:06;100901.00;;;14.80;100.00
16016;BME280;8112;53.592;10.184;2023-07-20T01:59:07;100907.50;;;14.76;100.00
16016;BME280;8112;53.592;10.184;2023-07-20T02:04:10;100906.13;;;14.71;100.00
16016;BME280;8112;53.592;10.184;2023-07-20T02:09:12;100908.47;;;14.75;100.00
16016;BME280;8112;53.592;10.184;2023-07-20T02:14:15;100913.63;;;14.77;100.00
16016;BME280;8112;53.592;10.184;2023-07-20T02:19:18;100912.25;;;14.84;100.00
16016;BME280;8112;53.592;10.184;2023-07-20T02:24:20;100924.06;;;14.67;100.00
16016;BME280;8112;53.592;10.184;2023-07-20T02:29:22;100918.25;;;14.62;100.00
16016;BME280;8112;53.592;10.184;2023-07-20T02:34:25;100934.66;;;14.67;100.00
16016;BME280;8112;53.592;10.184;2023-07-20T02:39:27;100941.06;;;14.64;100.00
16016;BME280;8112;53.592;10.184;2023-07-20T02:44:29;100944.44;;;14.66;100.00
16016;BME280;8112;53.592;10.184;2023-07-20T02:49:32;100945.59;;;14.62;100.00
16016;BME280;8112;53.592;10.184;2023-07-20T02:54:33;100953.50;;;14.51;100.00
16016;BME280;8112;53.592;10.184;2023-07-20T02:59:35;100954.69;;;14.47;100.00
16016;BME280;8112;53.592;10.184;2023-07-20T03:04:38;100958.50;;;14.43;100.00
16016;BME280;8112;53.592;10.184;2023-07-20T03:09:40;100956.25;;;14.49;100.00
16016;BME280;8112;53.592;10.184;2023-07-20T03:14:42;100959.78;;;14.50;100.00
16016;BME280;8112;53.592;10.184;2023-07-20T03:19:45;100976.63;;;14.49;100.00
16016;BME280;8112;53.592;10.184;2023-07-20T03:24:47;100970.16;;;14.53;100.00
16016;BME280;8112;53.592;10.184;2023-07-20T03:29:49;100976.75;;;14.47;100.00
16016;BME280;8112;53.592;10.184;2023-07-20T03:34:52;100988.63;;;14.42;100.00
16016;BME280;8112;53.592;10.184;2023-07-20T03:39:53;100988.81;;;14.51;100.00
16016;BME280;8112;53.592;10.184;2023-07-20T03:44:55;100987.31;;;14.60;100.00
16016;BME280;8112;53.592;10.184;2023-07-20T03:49:58;100982.72;;;14.62;100.00
16016;BME280;8112;53.592;10.184;2023-07-20T03:55:00;100989.00;;;14.61;100.00
16016;BME280;8112;53.592;10.184;2023-07-20T04:00:02;100989.41;;;14.68;100.00
16016;BME280;8112;53.592;10.184;2023-07-20T04:05:14;100998.31;;;14.80;100.00
16016;BME280;8112;53.592;10.184;2023-07-20T04:10:17;100996.44;;;14.93;100.00
16016;BME280;8112;53.592;10.184;2023-07-20T04:15:19;100985.28;;;15.01;100.00
16016;BME280;8112;53.592;10.184;2023-07-20T04:20:22;100990.97;;;15.08;100.00
16016;BME280;8112;53.592;10.184;2023-07-20T04:25:24;100992.91;;;15.06;100.00
16016;BME280;8112;53.592;10.184;2023-07-20T04:30:26;101000.38;;;15.01;100.00
16016;BME280;8112;53.592;10.184;2023-07-20T04:35:47;101000.56;;;14.98;100.00
16016;BME280;8112;53.592;10.184;2023-07-20T04:40:51;101008.50;;;15.10;100.00
16016;BME280;8112;53.592;10.184;2023-07-20T04:45:53;101000.69;;;15.20;100.00
16016;BME280;8112;53.592;10.184;2023-07-20T04:50:56;100996.44;;;15.53;100.00
16016;BME280;8112;53.592;10.184;2023-07-20T04:55:59;100983.34;;;15.86;100.00
16016;BME280;8112;53.592;10.184;2023-07-20T05:01:01;100979.72;;;15.87;100.00
16016;BME280;8112;53.592;10.184;2023-07-20T05:06:05;100980.38;;;16.02;100.00
16016;BME280;8112;53.592;10.184;2023-07-20T05:11:08;100977.72;;;16.14;100.00
16016;BME280;8112;53.592;10.184;2023-07-20T05:16:10;100966.06;;;15.80;100.00
16016;BME280;8112;53.592;10.184;2023-07-20T05:21:13;100967.91;;;16.26;100.00
16016;BME280;8112;53.592;10.184;2023-07-20T05:26:16;100965.31;;;16.58;100.00
16016;BME280;8112;53.592;10.184;2023-07-20T05:31:17;100965.44;;;17.01;100.00
16016;BME280;8112;53.592;10.184;2023-07-20T05:36:20;100957.25;;;17.25;100.00
16016;BME280;8112;53.592;10.184;2023-07-20T05:41:22;100952.63;;;17.06;100.00
16016;BME280;8112;53.592;10.184;2023-07-20T05:46:24;100944.38;;;16.98;100.00
16016;BME280;8112;53.592;10.184;2023-07-20T05:51:27;100941.38;;;16.91;100.00
16016;BME280;8112;53.592;10.184;2023-07-20T05:56:28;100945.50;;;17.28;100.00
16016;BME280;8112;53.592;10.184;2023-07-20T06:01:30;100937.94;;;17.75;100.00
16016;BME280;8112;53.592;10.184;2023-07-20T06:06:33;100940.09;;;17.91;100.00
16016;BME280;8112;53.592;10.184;2023-07-20T06:11:35;100933.31;;;18.08;100.00
16016;BME280;8112;53.592;10.184;2023-07-20T06:16:37;100926.34;;;18.27;100.00
16016;BME280;8112;53.592;10.184;2023-07-20T06:21:40;100922.44;;;18.31;100.00
16016;BME280;8112;53.592;10.184;2023-07-20T06:26:42;100917.69;;;18.45;100.00
16016;BME280;8112;53.592;10.184;2023-07-20T06:31:44;100926.44;;;18.76;100.00
16016;BME280;8112;53.592;10.184;2023-07-20T06:36:47;100915.75;;;18.76;100.00
16016;BME280;8112;53.592;10.184;2023-07-20T06:41:48;100928.25;;;18.05;100.00
16016;BME280;8112;53.592;10.184;2023-07-20T06:46:51;100922.44;;;18.31;100.00
16016;BME280;8112;53.592;10.184;2023-07-20T06:51:54;100914.59;;;18.40;100.00
16016;BME280;8112;53.592;10.184;2023-07-20T06:56:55;100907.91;;;19.04;100.00
16016;BME280;8112;53.592;10.184;2023-07-20T07:01:57;100912.53;;;18.83;100.00
16016;BME280;8112;53.592;10.184;2023-07-20T07:07:00;100925.59;;;18.76;100.00
16016;BME280;8112;53.592;10.184;2023-07-20T07:12:03;100916.00;;;18.63;100.00
16016;BME280;8112;53.592;10.184;2023-07-20T07:17:05;100908.75;;;19.05;100.00
16016;BME280;8112;53.592;10.184;2023-07-20T07:22:08;100899.69;;;19.35;100.00
16016;BME280;8112;53.592;10.184;2023-07-20T07:27:10;100901.97;;;19.68;100.00
16016;BME280;8112;53.592;10.184;2023-07-20T07:32:12;100903.38;;;19.25;100.00
16016;BME280;8112;53.592;10.184;2023-07-20T07:37:15;100915.16;;;18.43;100.00
16016;BME280;8112;53.592;10.184;2023-07-20T07:42:17;100909.94;;;18.42;100.00
16016;BME280;8112;53.592;10.184;2023-07-20T07:47:19;100907.81;;;19.44;100.00
16016;BME280;8112;53.592;10.184;2023-07-20T07:52:22;100924.47;;;18.98;100.00
16016;BME280;8112;53.592;10.184;2023-07-20T07:57:24;100929.66;;;18.09;100.00
16016;BME280;8112;53.592;10.184;2023-07-20T08:02:26;100943.16;;;17.13;100.00
16016;BME280;8112;53.592;10.184;2023-07-20T08:07:29;100944.69;;;17.37;100.00
16016;BME280;8112;53.592;10.184;2023-07-20T08:12:30;100948.06;;;18.03;100.00
16016;BME280;8112;53.592;10.184;2023-07-20T08:17:32;100948.03;;;18.54;100.00
16016;BME280;8112;53.592;10.184;2023-07-20T08:22:35;100935.91;;;19.58;100.00
16016;BME280;8112;53.592;10.184;2023-07-20T08:27:37;100931.63;;;19.85;100.00
16016;BME280;8112;53.592;10.184;2023-07-20T08:32:39;100921.69;;;19.67;100.00
16016;BME280;8112;53.592;10.184;2023-07-20T08:37:42;100925.03;;;20.17;100.00
16016;BME280;8112;53.592;10.184;2023-07-20T08:42:44;100928.94;;;21.05;100.00
16016;BME280;8112;53.592;10.184;2023-07-20T08:47:47;100926.44;;;20.75;100.00
16016;BME280;8112;53.592;10.184;2023-07-20T08:52:52;100923.09;;;20.55;100.00
16016;BME280;8112;53.592;10.184;2023-07-20T08:57:55;100931.50;;;20.60;100.00
16016;BME280;8112;53.592;10.184;2023-07-20T09:02:58;100926.09;;;21.06;100.00
16016;BME280;8112;53.592;10.184;2023-07-20T09:08:04;100933.38;;;20.32;100.00
16016;BME280;8112;53.592;10.184;2023-07-20T09:13:06;100943.19;;;19.75;100.00
16016;BME280;8112;53.592;10.184;2023-07-20T09:18:08;100947.25;;;20.17;100.00
16016;BME280;8112;53.592;10.184;2023-07-20T09:23:11;100942.00;;;21.53;100.00
16016;BME280;8112;53.592;10.184;2023-07-20T09:28:12;100931.16;;;21.89;100.00
16016;BME280;8112;53.592;10.184;2023-07-20T09:33:18;100930.47;;;21.87;100.00
16016;BME280;8112;53.592;10.184;2023-07-20T09:38:22;100939.28;;;20.82;100.00
16016;BME280;8112;53.592;10.184;2023-07-20T09:43:25;100968.91;;;18.29;100.00
16016;BME280;8112;53.592;10.184;2023-07-20T09:48:29;100968.94;;;17.34;100.00
16016;BME280;8112;53.592;10.184;2023-07-20T09:53:33;100966.06;;;17.47;100.00
16016;BME280;8112;53.592;10.184;2023-07-20T09:58:35;100975.47;;;18.15;100.00
16016;BME280;8112;53.592;10.184;2023-07-20T10:03:38;100967.59;;;18.74;100.00
16016;BME280;8112;53.592;10.184;2023-07-20T10:08:42;100960.47;;;19.33;100.00
16016;BME280;8112;53.592;10.184;2023-07-20T10:13:44;100946.22;;;20.00;100.00
16016;BME280;8112;53.592;10.184;2023-07-20T10:18:51;100945.19;;;20.75;100.00
16016;BME280;8112;53.592;10.184;2023-07-20T10:23:58;100944.47;;;21.46;100.00
16016;BME280;8112;53.592;10.184;2023-07-20T10:29:01;100936.13;;;22.10;100.00
16016;BME280;8112;53.592;10.184;2023-07-20T10:34:04;100938.22;;;21.90;100.00
16016;BME280;8112;53.592;10.184;2023-07-20T10:39:21;100927.47;;;21.63;100.00
16016;BME280;8112;53.592;10.184;2023-07-20T10:44:24;100934.63;;;20.84;100.00
16016;BME280;8112;53.592;10.184;2023-07-20T10:49:25;100943.25;;;20.31;100.00
16016;BME280;8112;53.592;10.184;2023-07-20T10:54:46;100959.06;;;17.24;100.00
16016;BME280;8112;53.592;10.184;2023-07-20T10:59:49;100955.28;;;17.70;100.00
16016;BME280;8112;53.592;10.184;2023-07-20T11:04:51;100961.50;;;18.42;100.00
16016;BME280;8112;53.592;10.184;2023-07-20T11:10:12;100961.44;;;19.42;100.00
16016;BME280;8112;53.592;10.184;2023-07-20T11:15:15;100950.63;;;20.65;100.00
16016;BME280;8112;53.592;10.184;2023-07-20T11:20:17;100966.44;;;20.13;100.00
16016;BME280;8112;53.592;10.184;2023-07-20T11:25:20;100980.41;;;18.29;100.00
16016;BME280;8112;53.592;10.184;2023-07-20T11:30:21;100988.22;;;17.90;100.00
16016;BME280;8112;53.592;10.184;2023-07-20T11:35:23;100990.91;;;18.00;100.00
16016;BME280;8112;53.592;10.184;2023-07-20T11:40:26;100987.63;;;18.48;100.00
16016;BME280;8112;53.592;10.184;2023-07-20T11:45:28;100977.34;;;19.04;100.00
16016;BME280;8112;53.592;10.184;2023-07-20T11:50:38;100976.72;;;18.91;100.00
16016;BME280;8112;53.592;10.184;2023-07-20T11:55:42;100968.50;;;19.04;100.00
16016;BME280;8112;53.592;10.184;2023-07-20T12:00:44;100955.97;;;19.82;100.00
16016;BME280;8112;53.592;10.184;2023-07-20T12:05:46;100971.47;;;20.44;100.00
16016;BME280;8112;53.592;10.184;2023-07-20T12:10:49;100979.44;;;19.88;100.00
16016;BME280;8112;53.592;10.184;2023-07-20T12:15:52;100997.63;;;18.56;100.00
16016;BME280;8112;53.592;10.184;2023-07-20T12:20:58;100993.78;;;18.39;100.00
16016;BME280;8112;53.592;10.184;2023-07-20T12:26:02;101005.16;;;17.58;100.00
16016;BME280;8112;53.592;10.184;2023-07-20T12:31:04;101007.63;;;16.61;100.00
16016;BME280;8112;53.592;10.184;2023-07-20T12:36:06;101003.44;;;16.36;100.00
16016;BME280;8112;53.592;10.184;2023-07-20T12:41:10;101014.38;;;16.77;100.00
16016;BME280;8112;53.592;10.184;2023-07-20T12:46:14;101021.22;;;17.14;100.00
16016;BME280;8112;53.592;10.184;2023-07-20T12:51:16;101007.72;;;17.90;100.00
16016;BME280;8112;53.592;10.184;2023-07-20T12:56:19;101012.66;;;18.57;100.00
16016;BME280;8112;53.592;10.184;2023-07-20T13:01:21;101008.25;;;18.97;100.00
16016;BME280;8112;53.592;10.184;2023-07-20T13:06:23;101011.00;;;18.66;100.00
16016;BME280;8112;53.592;10.184;2023-07-20T13:11:26;100990.94;;;18.91;100.00
16016;BME280;8112;53.592;10.184;2023-07-20T13:16:28;100987.31;;;20.09;100.00
16016;BME280;8112;53.592;10.184;2023-07-20T13:21:30;100971.59;;;20.24;100.00
16016;BME280;8112;53.592;10.184;2023-07-20T13:26:33;100970.53;;;20.63;100.00
16016;BME280;8112;53.592;10.184;2023-07-20T13:31:34;100962.00;;;21.14;100.00
16016;BME280;8112;53.592;10.184;2023-07-20T13:36:36;100972.94;;;21.02;100.00
16016;BME280;8112;53.592;10.184;2023-07-20T13:41:39;100974.50;;;20.77;100.00
16016;BME280;8112;53.592;10.184;2023-07-20T13:46:41;100981.78;;;20.11;100.00
16016;BME280;8112;53.592;10.184;2023-07-20T13:51:43;100970.91;;;20.68;100.00
16016;BME280;8112;53.592;10.184;2023-07-20T13:56:46;100967.72;;;20.36;100.00
16016;BME280;8112;53.592;10.184;2023-07-20T14:01:47;100969.69;;;20.62;100.00
16016;BME280;8112;53.592;10.184;2023-07-20T14:06:49;100978.31;;;20.56;100.00
16016;BME280;8112;53.592;10.184;2023-07-20T14:11:53;100990.94;;;20.18;100.00
16016;BME280;8112;53.592;10.184;2023-07-20T14:16:54;100975.00;;;20.44;100.00
16016;BME280;8112;53.592;10.184;2023-07-20T14:21:57;100976.84;;;20.16;100.00
16016;BME280;8112;53.592;10.184;2023-07-20T14:27:01;100979.31;;;20.27;100.00
16016;BME280;8112;53.592;10.184;2023-07-20T14:32:03;100986.75;;;20.05;100.00
16016;BME280;8112;53.592;10.184;2023-07-20T14:37:06;100975.34;;;20.03;100.00
16016;BME280;8112;53.592;10.184;2023-07-20T14:42:09;100963.84;;;19.93;100.00
16016;BME280;8112;53.592;10.184;2023-07-20T14:47:11;100973.16;;;20.73;100.00
16016;BME280;8112;53.592;10.184;2023-07-20T14:52:13;100966.69;;;21.38;100.00
16016;BME280;8112;53.592;10.184;2023-07-20T14:57:16;100972.16;;;21.55;100.00
16016;BME280;8112;53.592;10.184;2023-07-20T15:02:17;100966.97;;;21.53;100.00
16016;BME280;8112;53.592;10.184;2023-07-20T15:07:20;100961.47;;;21.81;100.00
16016;BME280;8112;53.592;10.184;2023-07-20T15:12:24;100966.19;;;22.30;100.00
16016;BME280;8112;53.592;10.184;2023-07-20T15:17:26;100957.72;;;22.00;100.00
16016;BME280;8112;53.592;10.184;2023-07-20T15:22:28;100960.47;;;22.17;100.00
16016;BME280;8112;53.592;10.184;2023-07-20T15:27:31;100957.63;;;21.13;100.00
16016;BME280;8112;53.592;10.184;2023-07-20T15:32:32;100958.25;;;21.25;100.00
16016;BME280;8112;53.592;10.184;2023-07-20T15:37:34;100962.78;;;22.12;100.00
16016;BME280;8112;53.592;10.184;2023-07-20T15:42:38;100964.16;;;22.75;100.00
16016;BME280;8112;53.592;10.184;2023-07-20T15:47:40;100947.03;;;22.68;100.00
16016;BME280;8112;53.592;10.184;2023-07-20T15:52:41;100961.31;;;22.85;100.00
16016;BME280;8112;53.592;10.184;2023-07-20T15:57:45;100953.94;;;22.71;100.00
16016;BME280;8112;53.592;10.184;2023-07-20T16:02:46;100951.94;;;22.73;100.00
16016;BME280;8112;53.592;10.184;2023-07-20T16:07:48;100944.53;;;23.00;100.00
16016;BME280;8112;53.592;10.184;2023-07-20T16:12:51;100954.91;;;22.61;96.52
16016;BME280;8112;53.592;10.184;2023-07-20T16:17:53;100952.56;;;22.07;96.24
16016;BME280;8112;53.592;10.184;2023-07-20T16:22:55;100956.03;;;20.56;100.00
16016;BME280;8112;53.592;10.184;2023-07-20T16:27:58;100953.50;;;20.08;100.00
16016;BME280;8112;53.592;10.184;2023-07-20T16:32:59;100959.06;;;19.87;100.00
16016;BME280;8112;53.592;10.184;2023-07-20T16:38:01;100952.84;;;19.48;100.00
16016;BME280;8112;53.592;10.184;2023-07-20T16:43:04;100951.88;;;19.87;100.00
16016;BME280;8112;53.592;10.184;2023-07-20T16:48:06;100948.31;;;20.06;100.00
16016;BME280;8112;53.592;10.184;2023-07-20T16:53:09;100946.25;;;20.92;100.00
16016;BME280;8112;53.592;10.184;2023-07-20T16:58:12;100947.06;;;19.91;100.00
16016;BME280;8112;53.592;10.184;2023-07-20T17:03:15;100941.63;;;21.03;100.00
16016;BME280;8112;53.592;10.184;2023-07-20T17:08:17;100956.94;;;20.00;100.00
16016;BME280;8112;53.592;10.184;2023-07-20T17:13:20;100944.19;;;19.07;100.00
16016;BME280;8112;53.592;10.184;2023-07-20T17:18:21;100948.53;;;19.18;100.00
16016;BME280;8112;53.592;10.184;2023-07-20T17:23:23;100944.69;;;19.20;100.00
16016;BME280;8112;53.592;10.184;2023-07-20T17:28:31;100951.03;;;19.19;100.00
16016;BME280;8112;53.592;10.184;2023-07-20T17:33:33;100944.28;;;19.15;100.00
16016;BME280;8112;53.592;10.184;2023-07-20T17:38:35;100930.66;;;19.18;100.00
16016;BME280;8112;53.592;10.184;2023-07-20T17:43:38;100933.47;;;19.27;100.00
16016;BME280;8112;53.592;10.184;2023-07-20T17:48:39;100933.88;;;19.32;100.00
16016;BME280;8112;53.592;10.184;2023-07-20T17:53:41;100934.16;;;19.39;100.00
16016;BME280;8112;53.592;10.184;2023-07-20T17:58:45;100937.41;;;19.22;100.00
16016;BME280;8112;53.592;10.184;2023-07-20T18:03:46;100932.63;;;19.16;100.00
16016;BME280;8112;53.592;10.184;2023-07-20T18:08:49;100923.94;;;19.04;100.00
16016;BME280;8112;53.592;10.184;2023-07-20T18:13:52;100925.72;;;18.74;100.00
16016;BME280;8112;53.592;10.184;2023-07-20T18:18:55;100929.94;;;18.57;100.00
16016;BME280;8112;53.592;10.184;2023-07-20T18:23:56;100931.31;;;18.51;100.00
16016;BME280;8112;53.592;10.184;2023-07-20T18:28:59;100933.38;;;18.38;100.00
16016;BME280;8112;53.592;10.184;2023-07-20T18:34:02;100938.28;;;18.33;100.00
16016;BME280;8112;53.592;10.184;2023-07-20T18:39:04;100940.91;;;18.13;100.00
16016;BME280;8112;53.592;10.184;2023-07-20T18:44:07;100948.06;;;18.03;100.00
16016;BME280;8112;53.592;10.184;2023-07-20T18:49:08;100951.78;;;18.00;100.00
16016;BME280;8112;53.592;10.184;2023-07-20T18:54:10;100951.16;;;18.08;100.00
16016;BME280;8112;53.592;10.184;2023-07-20T18:59:13;100961.22;;;17.83;100.00
16016;BME280;8112;53.592;10.184;2023-07-20T19:04:15;100954.25;;;17.61;100.00
16016;BME280;8112;53.592;10.184;2023-07-20T19:09:16;100954.06;;;17.52;100.00
16016;BME280;8112;53.592;10.184;2023-07-20T19:14:20;100956.66;;;17.43;100.00
16016;BME280;8112;53.592;10.184;2023-07-20T19:19:22;100966.00;;;17.37;100.00
16016;BME280;8112;53.592;10.184;2023-07-20T19:24:24;100958.69;;;17.29;100.00
16016;BME280;8112;53.592;10.184;2023-07-20T19:29:27;100960.53;;;17.17;100.00
16016;BME280;8112;53.592;10.184;2023-07-20T19:34:29;100959.91;;;17.04;100.00
16016;BME280;8112;53.592;10.184;2023-07-20T19:39:30;100964.84;;;16.97;100.00
16016;BME280;8112;53.592;10.184;2023-07-20T19:44:33;100971.25;;;16.94;100.00
16016;BME280;8112;53.592;10.184;2023-07-20T19:49:35;100978.06;;;16.99;100.00
16016;BME280;8112;53.592;10.184;2023-07-20T19:54:37;100973.44;;;17.01;100.00
16016;BME280;8112;53.592;10.184;2023-07-20T19:59:40;100977.56;;;16.93;100.00
16016;BME280;8112;53.592;10.184;2023-07-20T20:04:41;100983.25;;;16.89;100.00
16016;BME280;8112;53.592;10.184;2023-07-20T20:09:43;100981.81;;;16.96;100.00
16016;BME280;8112;53.592;10.184;2023-07-20T20:14:46;100980.94;;;16.95;100.00
16016;BME280;8112;53.592;10.184;2023-07-20T20:19:48;100980.81;;;16.97;100.00
16016;BME280;8112;53.592;10.184;2023-07-20T20:24:51;100978.06;;;16.99;100.00
16016;BME280;8112;53.592;10.184;2023-07-20T20:29:54;100980.81;;;16.97;100.00
16016;BME280;8112;53.592;10.184;2023-07-20T20:34:56;100972.13;;;16.95;100.00
16016;BME280;8112;53.592;10.184;2023-07-20T20:39:58;100973.00;;;16.84;100.00
16016;BME280;8112;53.592;10.184;2023-07-20T20:45:01;100976.38;;;16.86;100.00
16016;BME280;8112;53.592;10.184;2023-07-20T20:50:04;100979.28;;;16.83;100.00
16016;BME280;8112;53.592;10.184;2023-07-20T20:55:08;100977.59;;;16.82;100.00
16016;BME280;8112;53.592;10.184;2023-07-20T21:00:12;100976.16;;;16.78;100.00
16016;BME280;8112;53.592;10.184;2023-07-20T21:05:14;100974.94;;;16.82;100.00
16016;BME280;8112;53.592;10.184;2023-07-20T21:10:16;100984.84;;;16.80;100.00
16016;BME280;8112;53.592;10.184;2023-07-20T21:15:19;100977.53;;;16.61;100.00
16016;BME280;8112;53.592;10.184;2023-07-20T21:20:21;100975.50;;;16.42;100.00
16016;BME280;8112;53.592;10.184;2023-07-20T21:25:23;100983.38;;;16.32;100.00
16016;BME280;8112;53.592;10.184;2023-07-20T21:30:26;100983.16;;;16.12;100.00
16016;BME280;8112;53.592;10.184;2023-07-20T21:35:28;100979.41;;;15.92;100.00
16016;BME280;8112;53.592;10.184;2023-07-20T21:40:30;100980.94;;;15.83;100.00
16016;BME280;8112;53.592;10.184;2023-07-20T21:45:33;100979.31;;;15.69;100.00
16016;BME280;8112;53.592;10.184;2023-07-20T21:50:35;100984.50;;;15.59;100.00
16016;BME280;8112;53.592;10.184;2023-07-20T21:55:37;100989.91;;;15.46;100.00
16016;BME280;8112;53.592;10.184;2023-07-20T22:00:40;100986.56;;;15.20;100.00
16016;BME280;8112;53.592;10.184;2023-07-20T22:05:42;100984.13;;;15.17;100.00
16016;BME280;8112;53.592;10.184;2023-07-20T22:10:45;100983.06;;;15.19;100.00
16016;BME280;8112;53.592;10.184;2023-07-20T22:15:48;100985.78;;;15.06;100.00
16016;BME280;8112;53.592;10.184;2023-07-20T22:20:51;100992.44;;;15.12;100.00
16016;BME280;8112;53.592;10.184;2023-07-20T22:25:53;100990.41;;;15.16;100.00
16016;BME280;8112;53.592;10.184;2023-07-20T22:30:58;100988.56;;;15.05;100.00
16016;BME280;8112;53.592;10.184;2023-07-20T22:35:59;100978.44;;;15.10;100.00
16016;BME280;8112;53.592;10.184;2023-07-20T22:41:01;100990.00;;;15.09;100.00
16016;BME280;8112;53.592;10.184;2023-07-20T22:46:04;100979.22;;;15.23;100.00
16016;BME280;8112;53.592;10.184;2023-07-20T22:51:06;100968.94;;;15.19;100.00
16016;BME280;8112;53.592;10.184;2023-07-20T22:56:08;100970.13;;;15.15;100.00
16016;BME280;8112;53.592;10.184;2023-07-20T23:01:11;100962.81;;;15.30;100.00
16016;BME280;8112;53.592;10.184;2023-07-20T23:06:13;100958.72;;;15.37;100.00
16016;BME280;8112;53.592;10.184;2023-07-20T23:11:15;100959.69;;;15.36;100.00
16016;BME280;8112;53.592;10.184;2023-07-20T23:16:18;100966.53;;;15.27;100.00
16016;BME280;8112;53.592;10.184;2023-07-20T23:21:20;100977.06;;;15.29;100.00
16016;BME280;8112;53.592;10.184;2023-07-20T23:26:22;100958.75;;;15.48;100.00
16016;BME280;8112;53.592;10.184;2023-07-20T23:31:25;100958.28;;;15.43;100.00
16016;BME280;8112;53.592;10.184;2023-07-20T23:36:27;100957.19;;;15.46;100.00
16016;BME280;8112;53.592;10.184;2023-07-20T23:41:29;100945.41;;;15.73;100.00
16016;BME280;8112;53.592;10.184;2023-07-20T23:46:32;100933.59;;;16.00;100.00
16016;BME280;8112;53.592;10.184;2023-07-20T23:51:33;100931.81;;;16.12;100.00
16016;BME280;8112;53.592;10.184;2023-07-20T23:56:35;100929.63;;;16.17;100.00
